ロサンゼルス の空港の天気 - METARとTAF

ロサンゼルス国際空港 ( KLAX / LAX ) - アメリカ カリフォルニア州ロサンゼルス
飛行場実況気象(Metar)
観測時間01/20 23:53 PST (01/21 07:53 UTC)
風向・風速北西 3m/s
視程10km以上
天気現象
なし
気温12.2℃
湿度34%
気圧1021.3hPa
METARKLAX 210753Z 32005KT 10SM CLR 12/M03 A3016 RMK AO2 SLP213 T01221033 401720117
過去の天気等 Google飛行場航空写真 Wunderground天気予報

過去48時間のMETAR

飛行場予報(TAF)
発表時間: 1/20 21:31 PST (1/21 05:31 UTC)
予報対象時間: 20日22時 PST ~ 22日4時 PST
風向・風速西北西 4m/s
視程10km以上
なし
20日23時 PST から
風向・風速北 3m/s
視程10km以上
全天の4割程度の雲 雲底高度 7,620m
21日4時 PST から
風向・風速不定 2m/s
視程10km以上
全天の4割程度の雲 雲底高度 7,620m
21日12時 PST から
風向・風速西 6m/s
視程10km以上
全天の4割程度の雲 雲底高度 7,620m
21日20時 PST から
風向・風速不定 2m/s
視程10km以上
全天の4割程度の雲 雲底高度 7,620m
KLAX 210531Z 2106/2212 30008KT P6SM SKC
FM210700 35006KT P6SM SCT250
FM211200 VRB03KT P6SM SCT250
FM212000 26012KT P6SM SCT250
FM220400 VRB03KT P6SM SCT250